sensor_id;sensor_type;location;lat;lon;timestamp;pressure;altitude;pressure_sealevel;temperature;humidity
62926;BME280;55732;52.248;-0.844;2023-04-28T00:00:27;99969.58;;;7.94;99.56
62926;BME280;55732;52.248;-0.844;2023-04-28T00:02:53;99961.70;;;7.95;99.63
62926;BME280;55732;52.248;-0.844;2023-04-28T00:05:19;99956.98;;;7.96;99.45
62926;BME280;55732;52.248;-0.844;2023-04-28T00:07:44;99952.77;;;7.97;99.61
62926;BME280;55732;52.248;-0.844;2023-04-28T00:10:10;99953.30;;;7.99;99.54
62926;BME280;55732;52.248;-0.844;2023-04-28T00:12:36;99951.37;;;8.01;99.84
62926;BME280;55732;52.248;-0.844;2023-04-28T00:15:01;99947.87;;;8.02;99.68
62926;BME280;55732;52.248;-0.844;2023-04-28T00:17:28;99942.77;;;8.04;99.80
62926;BME280;55732;52.248;-0.844;2023-04-28T00:19:53;99939.77;;;8.04;99.99
62926;BME280;55732;52.248;-0.844;2023-04-28T00:22:18;99937.14;;;8.05;99.87
62926;BME280;55732;52.248;-0.844;2023-04-28T00:24:44;99930.66;;;8.06;99.95
62926;BME280;55732;52.248;-0.844;2023-04-28T00:27:09;99931.89;;;8.07;100.00
62926;BME280;55732;52.248;-0.844;2023-04-28T00:29:35;99924.16;;;8.08;100.00
62926;BME280;55732;52.248;-0.844;2023-04-28T00:32:01;99918.56;;;8.09;100.00
62926;BME280;55732;52.248;-0.844;2023-04-28T00:34:27;99914.35;;;8.10;99.92
62926;BME280;55732;52.248;-0.844;2023-04-28T00:36:54;99915.23;;;8.12;99.83
62926;BME280;55732;52.248;-0.844;2023-04-28T00:39:20;99914.88;;;8.13;99.87
62926;BME280;55732;52.248;-0.844;2023-04-28T00:41:47;99908.71;;;8.14;99.94
62926;BME280;55732;52.248;-0.844;2023-04-28T00:44:12;99908.36;;;8.15;100.00
62926;BME280;55732;52.248;-0.844;2023-04-28T00:46:38;99909.59;;;8.18;99.96
62926;BME280;55732;52.248;-0.844;2023-04-28T00:49:04;99911.87;;;8.19;99.99
62926;BME280;55732;52.248;-0.844;2023-04-28T00:51:30;99908.54;;;8.20;99.96
62926;BME280;55732;52.248;-0.844;2023-04-28T00:53:58;99901.35;;;8.23;99.95
62926;BME280;55732;52.248;-0.844;2023-04-28T00:56:23;99901.35;;;8.25;99.89
62926;BME280;55732;52.248;-0.844;2023-04-28T00:58:52;99897.65;;;8.26;100.00
62926;BME280;55732;52.248;-0.844;2023-04-28T01:01:17;99896.06;;;8.28;99.98
62926;BME280;55732;52.248;-0.844;2023-04-28T01:03:43;99893.95;;;8.30;100.00
62926;BME280;55732;52.248;-0.844;2023-04-28T01:06:09;99889.92;;;8.31;99.99
62926;BME280;55732;52.248;-0.844;2023-04-28T01:08:37;99887.31;;;8.33;99.99
62926;BME280;55732;52.248;-0.844;2023-04-28T01:11:02;99880.13;;;8.34;100.00
62926;BME280;55732;52.248;-0.844;2023-04-28T01:13:28;99878.54;;;8.37;100.00
62926;BME280;55732;52.248;-0.844;2023-04-28T01:15:54;99873.79;;;8.38;100.00
62926;BME280;55732;52.248;-0.844;2023-04-28T01:18:21;99868.15;;;8.40;100.00
62926;BME280;55732;52.248;-0.844;2023-04-28T01:20:46;99863.23;;;8.41;100.00
62926;BME280;55732;52.248;-0.844;2023-04-28T01:23:15;99867.10;;;8.44;100.00
62926;BME280;55732;52.248;-0.844;2023-04-28T01:25:42;99867.98;;;8.45;100.00
62926;BME280;55732;52.248;-0.844;2023-04-28T01:28:09;99869.55;;;8.46;100.00
62926;BME280;55732;52.248;-0.844;2023-04-28T01:30:35;99868.67;;;8.48;100.00
62926;BME280;55732;52.248;-0.844;2023-04-28T01:33:02;99869.19;;;8.49;100.00
62926;BME280;55732;52.248;-0.844;2023-04-28T01:35:27;99868.64;;;8.51;100.00
62926;BME280;55732;52.248;-0.844;2023-04-28T01:37:53;99865.64;;;8.54;100.00
62926;BME280;55732;52.248;-0.844;2023-04-28T01:40:18;99866.16;;;8.56;100.00
62926;BME280;55732;52.248;-0.844;2023-04-28T01:42:44;99870.55;;;8.58;100.00
62926;BME280;55732;52.248;-0.844;2023-04-28T01:45:10;99869.48;;;8.60;100.00
62926;BME280;55732;52.248;-0.844;2023-04-28T01:47:35;99871.03;;;8.63;100.00
62926;BME280;55732;52.248;-0.844;2023-04-28T01:50:01;99866.11;;;8.65;100.00
62926;BME280;55732;52.248;-0.844;2023-04-28T01:52:26;99872.43;;;8.67;100.00
62926;BME280;55732;52.248;-0.844;2023-04-28T01:54:52;99879.80;;;8.70;100.00
62926;BME280;55732;52.248;-0.844;2023-04-28T01:57:18;99875.92;;;8.73;100.00
62926;BME280;55732;52.248;-0.844;2023-04-28T01:59:44;99870.62;;;8.76;100.00
62926;BME280;55732;52.248;-0.844;2023-04-28T02:02:09;99873.77;;;8.78;100.00
62926;BME280;55732;52.248;-0.844;2023-04-28T02:04:36;99869.04;;;8.80;100.00
62926;BME280;55732;52.248;-0.844;2023-04-28T02:07:02;99867.97;;;8.82;100.00
62926;BME280;55732;52.248;-0.844;2023-04-28T02:09:27;99867.09;;;8.84;100.00
62926;BME280;55732;52.248;-0.844;2023-04-28T02:11:53;99869.16;;;8.86;100.00
62926;BME280;55732;52.248;-0.844;2023-04-28T02:14:18;99863.00;;;8.87;100.00
62926;BME280;55732;52.248;-0.844;2023-04-28T02:16:43;99857.56;;;8.89;100.00
62926;BME280;55732;52.248;-0.844;2023-04-28T02:19:09;99858.43;;;8.90;100.00
62926;BME280;55732;52.248;-0.844;2023-04-28T02:21:35;99858.95;;;8.92;100.00
62926;BME280;55732;52.248;-0.844;2023-04-28T02:24:00;99862.98;;;8.94;100.00
62926;BME280;55732;52.248;-0.844;2023-04-28T02:26:26;99860.33;;;8.97;100.00
62926;BME280;55732;52.248;-0.844;2023-04-28T02:28:52;99861.89;;;8.99;99.99
62926;BME280;55732;52.248;-0.844;2023-04-28T02:31:17;99863.10;;;9.03;99.94
62926;BME280;55732;52.248;-0.844;2023-04-28T02:33:42;99865.01;;;9.07;99.97
62926;BME280;55732;52.248;-0.844;2023-04-28T02:36:08;99860.23;;;9.10;99.91
62926;BME280;55732;52.248;-0.844;2023-04-28T02:38:34;99861.61;;;9.12;99.89
62926;BME280;55732;52.248;-0.844;2023-04-28T02:41:05;99857.39;;;9.14;99.74
62926;BME280;55732;52.248;-0.844;2023-04-28T02:43:32;99854.92;;;9.16;99.67
62926;BME280;55732;52.248;-0.844;2023-04-28T02:45:57;99846.17;;;9.13;99.71
62926;BME280;55732;52.248;-0.844;2023-04-28T02:48:23;99853.52;;;9.19;99.85
62926;BME280;55732;52.248;-0.844;2023-04-28T02:50:49;99851.38;;;9.21;99.82
62926;BME280;55732;52.248;-0.844;2023-04-28T02:53:20;99852.94;;;9.22;99.76
62926;BME280;55732;52.248;-0.844;2023-04-28T02:55:45;99848.20;;;9.23;99.75
62926;BME280;55732;52.248;-0.844;2023-04-28T02:58:11;99846.42;;;9.24;99.79
62926;BME280;55732;52.248;-0.844;2023-04-28T03:00:37;99841.68;;;9.26;99.79
62926;BME280;55732;52.248;-0.844;2023-04-28T03:03:03;99845.00;;;9.28;99.81
62926;BME280;55732;52.248;-0.844;2023-04-28T03:05:28;99847.27;;;9.30;99.73
62926;BME280;55732;52.248;-0.844;2023-04-28T03:07:53;99849.20;;;9.31;99.61
62926;BME280;55732;52.248;-0.844;2023-04-28T03:10:19;99845.85;;;9.32;99.60
62926;BME280;55732;52.248;-0.844;2023-04-28T03:12:44;99848.64;;;9.33;99.64
62926;BME280;55732;52.248;-0.844;2023-04-28T03:15:10;99846.34;;;9.34;99.57
62926;BME280;55732;52.248;-0.844;2023-04-28T03:17:36;99847.22;;;9.35;99.66
62926;BME280;55732;52.248;-0.844;2023-04-28T03:20:04;99845.45;;;9.37;99.76
62926;BME280;55732;52.248;-0.844;2023-04-28T03:22:30;99843.51;;;9.39;99.65
62926;BME280;55732;52.248;-0.844;2023-04-28T03:24:55;99844.55;;;9.39;99.35
62926;BME280;55732;52.248;-0.844;2023-04-28T03:27:21;99847.71;;;9.40;99.32
62926;BME280;55732;52.248;-0.844;2023-04-28T03:29:46;99844.57;;;9.40;99.36
62926;BME280;55732;52.248;-0.844;2023-04-28T03:32:12;99845.20;;;9.44;99.32
62926;BME280;55732;52.248;-0.844;2023-04-28T03:34:37;99842.55;;;9.45;99.15
62926;BME280;55732;52.248;-0.844;2023-04-28T03:37:03;99846.77;;;9.46;99.24
62926;BME280;55732;52.248;-0.844;2023-04-28T03:39:28;99848.52;;;9.47;99.06
62926;BME280;55732;52.248;-0.844;2023-04-28T03:41:53;99848.16;;;9.48;99.09
62926;BME280;55732;52.248;-0.844;2023-04-28T03:44:19;99845.88;;;9.49;99.12
62926;BME280;55732;52.248;-0.844;2023-04-28T03:46:45;99848.34;;;9.49;99.06
62926;BME280;55732;52.248;-0.844;2023-04-28T03:49:11;99850.62;;;9.50;98.85
62926;BME280;55732;52.248;-0.844;2023-04-28T03:51:36;99849.73;;;9.51;98.98
62926;BME280;55732;52.248;-0.844;2023-04-28T03:54:02;99846.03;;;9.52;99.10
62926;BME280;55732;52.248;-0.844;2023-04-28T03:56:27;99850.95;;;9.54;99.13
62926;BME280;55732;52.248;-0.844;2023-04-28T03:58:52;99854.45;;;9.54;98.95
62926;BME280;55732;52.248;-0.844;2023-04-28T04:01:18;99859.02;;;9.55;99.07
62926;BME280;55732;52.248;-0.844;2023-04-28T04:03:43;99858.30;;;9.56;98.98
62926;BME280;55732;52.248;-0.844;2023-04-28T04:06:09;99854.94;;;9.56;98.82
62926;BME280;55732;52.248;-0.844;2023-04-28T04:08:34;99859.52;;;9.56;98.72
62926;BME280;55732;52.248;-0.844;2023-04-28T04:11:00;99857.59;;;9.57;98.96
62926;BME280;55732;52.248;-0.844;2023-04-28T04:13:25;99853.52;;;9.57;98.69
62926;BME280;55732;52.248;-0.844;2023-04-28T04:15:51;99857.20;;;9.58;98.82
62926;BME280;55732;52.248;-0.844;2023-04-28T04:18:19;99858.44;;;9.59;98.74
62926;BME280;55732;52.248;-0.844;2023-04-28T04:20:45;99861.42;;;9.59;98.75
62926;BME280;55732;52.248;-0.844;2023-04-28T04:23:10;99863.52;;;9.60;98.76
62926;BME280;55732;52.248;-0.844;2023-04-28T04:25:35;99860.19;;;9.60;98.80
62926;BME280;55732;52.248;-0.844;2023-04-28T04:28:01;99862.29;;;9.62;98.81
62926;BME280;55732;52.248;-0.844;2023-04-28T04:30:26;99863.85;;;9.63;99.02
62926;BME280;55732;52.248;-0.844;2023-04-28T04:32:52;99857.70;;;9.64;98.89
62926;BME280;55732;52.248;-0.844;2023-04-28T04:35:17;99860.15;;;9.66;99.06
62926;BME280;55732;52.248;-0.844;2023-04-28T04:37:43;99857.83;;;9.67;99.08
62926;BME280;55732;52.248;-0.844;2023-04-28T04:40:09;99859.74;;;9.69;99.06
62926;BME280;55732;52.248;-0.844;2023-04-28T04:42:34;99854.83;;;9.70;99.07
62926;BME280;55732;52.248;-0.844;2023-04-28T04:45:00;99855.85;;;9.71;99.04
62926;BME280;55732;52.248;-0.844;2023-04-28T04:47:25;99853.39;;;9.72;99.31
62926;BME280;55732;52.248;-0.844;2023-04-28T04:49:51;99853.21;;;9.74;99.20
62926;BME280;55732;52.248;-0.844;2023-04-28T04:52:17;99856.71;;;9.75;99.33
62926;BME280;55732;52.248;-0.844;2023-04-28T04:54:43;99855.30;;;9.76;99.27
62926;BME280;55732;52.248;-0.844;2023-04-28T04:57:10;99858.98;;;9.78;99.29
62926;BME280;55732;52.248;-0.844;2023-04-28T04:59:35;99864.39;;;9.80;99.45
62926;BME280;55732;52.248;-0.844;2023-04-28T05:02:01;99866.12;;;9.83;99.31
62926;BME280;55732;52.248;-0.844;2023-04-28T05:04:27;99868.56;;;9.86;99.34
62926;BME280;55732;52.248;-0.844;2023-04-28T05:06:53;99870.65;;;9.89;99.50
62926;BME280;55732;52.248;-0.844;2023-04-28T05:09:18;99873.42;;;9.91;99.48
62926;BME280;55732;52.248;-0.844;2023-04-28T05:11:44;99873.92;;;9.94;99.66
62926;BME280;55732;52.248;-0.844;2023-04-28T05:14:10;99874.26;;;9.97;99.66
62926;BME280;55732;52.248;-0.844;2023-04-28T05:16:37;99877.92;;;10.00;99.63
62926;BME280;55732;52.248;-0.844;2023-04-28T05:19:03;99878.59;;;10.03;99.61
62926;BME280;55732;52.248;-0.844;2023-04-28T05:21:29;99882.23;;;10.06;99.73
62926;BME280;55732;52.248;-0.844;2023-04-28T05:23:55;99881.68;;;10.10;99.80
62926;BME280;55732;52.248;-0.844;2023-04-28T05:26:22;99879.37;;;10.12;99.77
62926;BME280;55732;52.248;-0.844;2023-04-28T05:28:47;99878.46;;;10.14;99.75
62926;BME280;55732;52.248;-0.844;2023-04-28T05:31:12;99883.37;;;10.18;99.84
62926;BME280;55732;52.248;-0.844;2023-04-28T05:33:38;99886.52;;;10.21;99.76
62926;BME280;55732;52.248;-0.844;2023-04-28T05:36:04;99888.59;;;10.25;99.60
62926;BME280;55732;52.248;-0.844;2023-04-28T05:38:29;99889.56;;;10.31;99.62
62926;BME280;55732;52.248;-0.844;2023-04-28T05:40:56;99893.38;;;10.37;99.71
62926;BME280;55732;52.248;-0.844;2023-04-28T05:43:21;99897.02;;;10.42;99.83
62926;BME280;55732;52.248;-0.844;2023-04-28T05:45:46;99894.33;;;10.46;99.85
62926;BME280;55732;52.248;-0.844;2023-04-28T05:48:12;99892.13;;;10.53;99.79
62926;BME280;55732;52.248;-0.844;2023-04-28T05:50:37;99895.78;;;10.58;99.69
62926;BME280;55732;52.248;-0.844;2023-04-28T05:53:03;99896.02;;;10.65;99.58
62926;BME280;55732;52.248;-0.844;2023-04-28T05:55:29;99896.45;;;10.74;99.71
62926;BME280;55732;52.248;-0.844;2023-04-28T05:57:54;99894.73;;;10.83;99.53
62926;BME280;55732;52.248;-0.844;2023-04-28T06:00:20;99899.85;;;10.96;99.37
62926;BME280;55732;52.248;-0.844;2023-04-28T06:02:46;99898.34;;;11.03;99.46
62926;BME280;55732;52.248;-0.844;2023-04-28T06:05:11;99901.62;;;11.08;99.28
62926;BME280;55732;52.248;-0.844;2023-04-28T06:07:37;99895.90;;;11.14;99.19
62926;BME280;55732;52.248;-0.844;2023-04-28T06:10:02;99892.27;;;11.20;99.22
62926;BME280;55732;52.248;-0.844;2023-04-28T06:12:28;99896.77;;;11.26;98.93
62926;BME280;55732;52.248;-0.844;2023-04-28T06:14:53;99896.36;;;11.31;98.87
62926;BME280;55732;52.248;-0.844;2023-04-28T06:17:20;99900.15;;;11.35;98.77
62926;BME280;55732;52.248;-0.844;2023-04-28T06:19:45;99903.96;;;11.40;98.70
62926;BME280;55732;52.248;-0.844;2023-04-28T06:22:11;99905.98;;;11.45;98.70
62926;BME280;55732;52.248;-0.844;2023-04-28T06:24:36;99910.35;;;11.48;98.57
62926;BME280;55732;52.248;-0.844;2023-04-28T06:27:02;99913.86;;;11.50;98.61
62926;BME280;55732;52.248;-0.844;2023-04-28T06:29:27;99913.11;;;11.52;98.48
62926;BME280;55732;52.248;-0.844;2023-04-28T06:31:53;99908.44;;;11.57;98.47
62926;BME280;55732;52.248;-0.844;2023-04-28T06:34:24;99914.25;;;11.68;98.40
62926;BME280;55732;52.248;-0.844;2023-04-28T06:37:00;99918.64;;;11.82;98.37
62926;BME280;55732;52.248;-0.844;2023-04-28T06:39:26;99922.31;;;11.95;98.31
62926;BME280;55732;52.248;-0.844;2023-04-28T06:41:51;99922.52;;;12.03;98.02
62926;BME280;55732;52.248;-0.844;2023-04-28T06:44:17;99925.27;;;12.06;97.79
62926;BME280;55732;52.248;-0.844;2023-04-28T06:46:42;99928.80;;;12.06;97.57
62926;BME280;55732;52.248;-0.844;2023-04-28T06:49:08;99929.98;;;12.09;97.60
62926;BME280;55732;52.248;-0.844;2023-04-28T06:51:33;99933.80;;;12.14;97.49
62926;BME280;55732;52.248;-0.844;2023-04-28T06:53:59;99933.00;;;12.17;97.35
62926;BME280;55732;52.248;-0.844;2023-04-28T06:56:24;99931.88;;;12.22;97.29
62926;BME280;55732;52.248;-0.844;2023-04-28T06:58:50;99936.06;;;12.25;97.14
62926;BME280;55732;52.248;-0.844;2023-04-28T07:01:16;99940.42;;;12.27;97.14
62926;BME280;55732;52.248;-0.844;2023-04-28T07:03:41;99945.17;;;12.28;97.12
62926;BME280;55732;52.248;-0.844;2023-04-28T07:06:07;99943.58;;;12.28;96.92
62926;BME280;55732;52.248;-0.844;2023-04-28T07:08:33;99944.23;;;12.30;96.74
62926;BME280;55732;52.248;-0.844;2023-04-28T07:10:59;99946.29;;;12.35;96.80
62926;BME280;55732;52.248;-0.844;2023-04-28T07:13:29;99947.73;;;12.42;96.78
62926;BME280;55732;52.248;-0.844;2023-04-28T07:15:54;99955.59;;;12.47;96.59
62926;BME280;55732;52.248;-0.844;2023-04-28T07:18:20;99958.38;;;12.50;96.47
62926;BME280;55732;52.248;-0.844;2023-04-28T07:20:45;99958.88;;;12.51;96.28
62926;BME280;55732;52.248;-0.844;2023-04-28T07:23:12;99959.93;;;12.51;96.28
62926;BME280;55732;52.248;-0.844;2023-04-28T07:25:38;99965.23;;;12.51;95.97
62926;BME280;55732;52.248;-0.844;2023-04-28T07:28:06;99966.27;;;12.51;95.83
62926;BME280;55732;52.248;-0.844;2023-04-28T07:30:32;99971.20;;;12.52;96.06
62926;BME280;55732;52.248;-0.844;2023-04-28T07:32:58;99976.80;;;12.55;95.84
62926;BME280;55732;52.248;-0.844;2023-04-28T07:35:24;99974.64;;;12.57;95.81
62926;BME280;55732;52.248;-0.844;2023-04-28T07:37:50;99975.27;;;12.62;95.87
62926;BME280;55732;52.248;-0.844;2023-04-28T07:40:16;99977.42;;;12.69;95.82
62926;BME280;55732;52.248;-0.844;2023-04-28T07:42:41;99981.85;;;12.77;95.65
62926;BME280;55732;52.248;-0.844;2023-04-28T07:45:07;99987.73;;;12.84;95.67
62926;BME280;55732;52.248;-0.844;2023-04-28T07:47:33;99986.92;;;12.88;95.54
62926;BME280;55732;52.248;-0.844;2023-04-28T07:49:59;99988.10;;;12.91;95.37
62926;BME280;55732;52.248;-0.844;2023-04-28T07:52:29;99990.48;;;12.96;94.99
62926;BME280;55732;52.248;-0.844;2023-04-28T07:54:54;99993.34;;;13.03;94.85
62926;BME280;55732;52.248;-0.844;2023-04-28T07:57:19;99998.90;;;13.08;94.57
62926;BME280;55732;52.248;-0.844;2023-04-28T07:59:45;100000.96;;;13.10;94.56
62926;BME280;55732;52.248;-0.844;2023-04-28T08:02:10;100002.63;;;13.17;94.47
62926;BME280;55732;52.248;-0.844;2023-04-28T08:04:38;100005.84;;;13.23;94.38
62926;BME280;55732;52.248;-0.844;2023-04-28T08:07:03;100010.17;;;13.28;94.05
62926;BME280;55732;52.248;-0.844;2023-04-28T08:09:29;100012.83;;;13.28;93.75
62926;BME280;55732;52.248;-0.844;2023-04-28T08:11:54;100012.84;;;13.27;93.65
62926;BME280;55732;52.248;-0.844;2023-04-28T08:14:20;100013.88;;;13.28;93.62
62926;BME280;55732;52.248;-0.844;2023-04-28T08:16:45;100021.61;;;13.31;93.53
62926;BME280;55732;52.248;-0.844;2023-04-28T08:19:11;100023.48;;;13.33;93.11
62926;BME280;55732;52.248;-0.844;2023-04-28T08:21:37;100026.57;;;13.38;92.77
62926;BME280;55732;52.248;-0.844;2023-04-28T08:24:02;100027.05;;;13.41;92.74
62926;BME280;55732;52.248;-0.844;2023-04-28T08:26:28;100031.43;;;13.43;92.69
62926;BME280;55732;52.248;-0.844;2023-04-28T08:28:53;100034.55;;;13.45;92.77
62926;BME280;55732;52.248;-0.844;2023-04-28T08:31:18;100035.46;;;13.52;92.77
62926;BME280;55732;52.248;-0.844;2023-04-28T08:33:44;100040.77;;;13.60;92.65
62926;BME280;55732;52.248;-0.844;2023-04-28T08:36:13;100044.89;;;13.66;92.17
62926;BME280;55732;52.248;-0.844;2023-04-28T08:38:39;100044.39;;;13.72;91.76
62926;BME280;55732;52.248;-0.844;2023-04-28T08:41:06;100046.35;;;13.79;91.29
62926;BME280;55732;52.248;-0.844;2023-04-28T08:43:34;100049.33;;;13.88;91.28
62926;BME280;55732;52.248;-0.844;2023-04-28T08:46:05;100049.79;;;13.92;91.07
62926;BME280;55732;52.248;-0.844;2023-04-28T08:48:38;100055.04;;;13.86;90.67
62926;BME280;55732;52.248;-0.844;2023-04-28T08:51:05;100060.15;;;13.79;90.66
62926;BME280;55732;52.248;-0.844;2023-04-28T08:53:31;100060.34;;;13.79;90.70
62926;BME280;55732;52.248;-0.844;2023-04-28T08:55:58;100062.33;;;13.77;90.41
62926;BME280;55732;52.248;-0.844;2023-04-28T08:58:25;100067.05;;;13.70;89.93
62926;BME280;55732;52.248;-0.844;2023-04-28T09:00:52;100069.36;;;13.70;89.72
62926;BME280;55732;52.248;-0.844;2023-04-28T09:03:19;100077.19;;;13.69;89.66
62926;BME280;55732;52.248;-0.844;2023-04-28T09:05:44;100080.80;;;13.66;89.44
62926;BME280;55732;52.248;-0.844;2023-04-28T09:08:10;100080.88;;;13.62;89.27
62926;BME280;55732;52.248;-0.844;2023-04-28T09:10:38;100083.45;;;13.57;89.42
62926;BME280;55732;52.248;-0.844;2023-04-28T09:13:04;100087.94;;;13.55;89.21
62926;BME280;55732;52.248;-0.844;2023-04-28T09:15:33;100093.83;;;13.52;89.11
62926;BME280;55732;52.248;-0.844;2023-04-28T09:18:04;100091.86;;;13.53;89.07
62926;BME280;55732;52.248;-0.844;2023-04-28T09:20:31;100097.33;;;13.54;88.70
62926;BME280;55732;52.248;-0.844;2023-04-28T09:23:17;100101.55;;;13.55;88.43
62926;BME280;55732;52.248;-0.844;2023-04-28T09:26:01;100104.83;;;13.51;88.46
62926;BME280;55732;52.248;-0.844;2023-04-28T09:28:27;100108.80;;;13.46;88.34
62926;BME280;55732;52.248;-0.844;2023-04-28T09:30:54;100109.18;;;13.45;88.34
62926;BME280;55732;52.248;-0.844;2023-04-28T09:33:20;100108.19;;;13.50;88.18
62926;BME280;55732;52.248;-0.844;2023-04-28T09:35:46;100109.20;;;13.61;87.77
62926;BME280;55732;52.248;-0.844;2023-04-28T09:38:13;100109.52;;;13.79;87.23
62926;BME280;55732;52.248;-0.844;2023-04-28T09:43:25;100121.71;;;14.57;86.06
62926;BME280;55732;52.248;-0.844;2023-04-28T09:45:51;100119.23;;;14.91;85.05
62926;BME280;55732;52.248;-0.844;2023-04-28T09:48:29;100115.52;;;15.42;84.12
62926;BME280;55732;52.248;-0.844;2023-04-28T09:50:55;100119.13;;;16.07;82.64
62926;BME280;55732;52.248;-0.844;2023-04-28T09:53:27;100126.55;;;16.47;81.44
62926;BME280;55732;52.248;-0.844;2023-04-28T09:55:55;100127.36;;;16.66;80.88
62926;BME280;55732;52.248;-0.844;2023-04-28T09:58:25;100125.77;;;17.31;79.45
62926;BME280;55732;52.248;-0.844;2023-04-28T10:00:53;100133.05;;;18.09;77.05
62926;BME280;55732;52.248;-0.844;2023-04-28T10:03:26;100138.34;;;19.66;73.73
62926;BME280;55732;52.248;-0.844;2023-04-28T10:05:53;100146.08;;;19.69;72.83
62926;BME280;55732;52.248;-0.844;2023-04-28T10:08:20;100153.67;;;19.30;72.22
62926;BME280;55732;52.248;-0.844;2023-04-28T10:10:48;100161.48;;;18.73;72.09
62926;BME280;55732;52.248;-0.844;2023-04-28T10:13:17;100169.34;;;18.42;72.19
62926;BME280;55732;52.248;-0.844;2023-04-28T10:15:44;100172.50;;;18.11;72.03
62926;BME280;55732;52.248;-0.844;2023-04-28T10:18:14;100180.80;;;17.75;72.30
62926;BME280;55732;52.248;-0.844;2023-04-28T10:20:47;100183.20;;;17.53;71.90
62926;BME280;55732;52.248;-0.844;2023-04-28T10:25:41;100198.56;;;17.26;71.73
62926;BME280;55732;52.248;-0.844;2023-04-28T10:28:08;100208.77;;;16.93;72.16
62926;BME280;55732;52.248;-0.844;2023-04-28T10:30:34;100210.45;;;16.52;72.50
62926;BME280;55732;52.248;-0.844;2023-04-28T10:38:09;100224.64;;;15.88;73.20
62926;BME280;55732;52.248;-0.844;2023-04-28T10:40:41;100229.82;;;15.99;72.92
62926;BME280;55732;52.248;-0.844;2023-04-28T10:43:08;100230.98;;;16.31;72.44
62926;BME280;55732;52.248;-0.844;2023-04-28T10:46:07;100234.83;;;16.56;72.13
62926;BME280;55732;52.248;-0.844;2023-04-28T10:56:20;100251.42;;;16.49;71.38
62926;BME280;55732;52.248;-0.844;2023-04-28T10:58:48;100252.17;;;16.36;71.12
62926;BME280;55732;52.248;-0.844;2023-04-28T11:06:22;100258.25;;;16.58;70.56
62926;BME280;55732;52.248;-0.844;2023-04-28T11:09:00;100266.73;;;16.42;70.05
62926;BME280;55732;52.248;-0.844;2023-04-28T11:11:30;100268.39;;;16.22;69.99
62926;BME280;55732;52.248;-0.844;2023-04-28T11:17:04;100266.92;;;16.17;69.69
62926;BME280;55732;52.248;-0.844;2023-04-28T11:19:34;100268.67;;;16.18;69.37
62926;BME280;55732;52.248;-0.844;2023-04-28T11:22:02;100274.83;;;16.08;69.63
62926;BME280;55732;52.248;-0.844;2023-04-28T11:24:29;100276.91;;;15.98;69.86
62926;BME280;55732;52.248;-0.844;2023-04-28T11:26:58;100278.91;;;15.96;69.70
62926;BME280;55732;52.248;-0.844;2023-04-28T11:29:35;100286.89;;;15.90;70.21
62926;BME280;55732;52.248;-0.844;2023-04-28T11:32:02;100289.30;;;15.73;70.42
62926;BME280;55732;52.248;-0.844;2023-04-28T11:34:27;100294.33;;;15.58;70.28
62926;BME280;55732;52.248;-0.844;2023-04-28T11:36:53;100300.45;;;15.40;70.51
62926;BME280;55732;52.248;-0.844;2023-04-28T11:39:27;100303.41;;;15.28;70.91
62926;BME280;55732;52.248;-0.844;2023-04-28T11:41:53;100306.66;;;15.11;70.97
62926;BME280;55732;52.248;-0.844;2023-04-28T11:44:21;100308.70;;;15.00;71.18
62926;BME280;55732;52.248;-0.844;2023-04-28T11:46:49;100305.17;;;14.99;71.17
62926;BME280;55732;52.248;-0.844;2023-04-28T11:49:17;100305.88;;;15.07;71.47
62926;BME280;55732;52.248;-0.844;2023-04-28T11:51:43;100312.34;;;15.26;71.28
62926;BME280;55732;52.248;-0.844;2023-04-28T11:54:22;100315.78;;;15.52;70.65
62926;BME280;55732;52.248;-0.844;2023-04-28T11:56:47;100313.88;;;15.64;70.52
62926;BME280;55732;52.248;-0.844;2023-04-28T11:59:13;100311.69;;;15.73;70.36
62926;BME280;55732;52.248;-0.844;2023-04-28T12:04:10;100312.34;;;15.81;69.61
62926;BME280;55732;52.248;-0.844;2023-04-28T12:06:37;100316.59;;;15.88;69.61
62926;BME280;55732;52.248;-0.844;2023-04-28T12:09:17;100321.52;;;15.97;69.38
62926;BME280;55732;52.248;-0.844;2023-04-28T12:11:58;100318.88;;;16.09;69.17
62926;BME280;55732;52.248;-0.844;2023-04-28T12:14:25;100311.90;;;16.29;68.55
62926;BME280;55732;52.248;-0.844;2023-04-28T12:16:50;100319.48;;;16.49;68.64
62926;BME280;55732;52.248;-0.844;2023-04-28T12:19:16;100322.58;;;16.77;68.39
62926;BME280;55732;52.248;-0.844;2023-04-28T12:21:57;100329.28;;;17.01;67.57
62926;BME280;55732;52.248;-0.844;2023-04-28T12:24:24;100330.86;;;17.02;66.60
62926;BME280;55732;52.248;-0.844;2023-04-28T12:26:51;100336.67;;;16.98;65.82
62926;BME280;55732;52.248;-0.844;2023-04-28T12:29:35;100342.48;;;16.89;65.48
62926;BME280;55732;52.248;-0.844;2023-04-28T12:32:03;100345.97;;;16.74;65.50
62926;BME280;55732;52.248;-0.844;2023-04-28T12:34:29;100346.88;;;16.60;65.63
62926;BME280;55732;52.248;-0.844;2023-04-28T12:36:55;100346.17;;;16.53;65.69
62926;BME280;55732;52.248;-0.844;2023-04-28T12:39:21;100348.48;;;16.48;66.19
62926;BME280;55732;52.248;-0.844;2023-04-28T12:41:47;100350.58;;;16.49;66.12
62926;BME280;55732;52.248;-0.844;2023-04-28T12:44:12;100354.90;;;16.60;65.90
62926;BME280;55732;52.248;-0.844;2023-04-28T12:46:40;100358.83;;;16.77;65.76
62926;BME280;55732;52.248;-0.844;2023-04-28T12:49:05;100360.94;;;16.96;65.15
62926;BME280;55732;52.248;-0.844;2023-04-28T12:51:31;100365.45;;;17.16;65.06
62926;BME280;55732;52.248;-0.844;2023-04-28T12:53:59;100364.69;;;17.35;64.69
62926;BME280;55732;52.248;-0.844;2023-04-28T12:56:25;100364.20;;;17.44;63.86
62926;BME280;55732;52.248;-0.844;2023-04-28T12:58:51;100365.96;;;17.49;63.66
62926;BME280;55732;52.248;-0.844;2023-04-28T13:01:16;100369.36;;;17.55;62.86
62926;BME280;55732;52.248;-0.844;2023-04-28T13:03:42;100370.98;;;17.59;62.77
62926;BME280;55732;52.248;-0.844;2023-04-28T13:06:08;100375.98;;;17.54;62.48
62926;BME280;55732;52.248;-0.844;2023-04-28T13:08:35;100379.84;;;17.45;62.52
62926;BME280;55732;52.248;-0.844;2023-04-28T13:11:01;100387.58;;;17.47;62.04
62926;BME280;55732;52.248;-0.844;2023-04-28T13:13:29;100381.66;;;17.66;61.80
62926;BME280;55732;52.248;-0.844;2023-04-28T13:15:55;100382.77;;;17.80;61.59